Mauterndorf, Austria
Current Conditions -  °F | °C
As of 11:50 PM on Friday 28 Nov 2014 (Local Time) from LOWK Reporting Station
Light Rain Light Rain  
Wind Chill: 41°   Ceiling: 500
Heat Index: 41°   Visibility: 4mi
Dew Point: 39°   Wind: 1mph
Humidity: 93%   Direction: NA
Pressure: 30.03"   Gusts: NA
Location:  47.13°N, 13.68°E
Report Text: LOWK 282250Z AUTO VRB01KT 6000 -RA FEW004 BKN005 05/04 Q1017
Loading
Personal Weather Stations






























Interactive Weather Map New forecast layout! Learn more

10-Day Weather Forecast

Advertisements
Track Severe Weather on mobile